Time,TemperatureF,DewpointF,PressureIn,WindDirection,WindDirectionDegrees,WindSpeedMPH,WindSpeedGustMPH,Humidity,HourlyPrecipIn,Conditions,Clouds,dailyrainin,SoftwareType,DateUTC
2013-02-08 00:00:00,36.1,26.3,28.88,SSE,157,1.3,4.9,67,0.00,,,0.00,WUHU216WMR100,2013-02-08 05:00:00,
2013-02-08 00:05:00,36.0,26.5,28.88,SSE,157,3.1,4.9,68,0.00,,,0.00,WUHU216WMR100,2013-02-08 05:05:00,
2013-02-08 00:10:00,35.8,26.3,28.88,ESE,112,2.9,4.7,68,0.00,,,0.00,WUHU216WMR100,2013-02-08 05:10:00,
2013-02-08 00:15:00,35.8,26.3,28.88,SSE,157,2.2,4.7,68,0.00,,,0.00,WUHU216WMR100,2013-02-08 05:15:00,
2013-02-08 00:20:00,35.8,26.7,28.85,SE,135,2.5,4.0,69,0.00,,,0.00,WUHU216WMR100,2013-02-08 05:20:00,
2013-02-08 00:26:00,35.6,26.5,28.85,SSE,157,2.9,3.6,69,0.00,,,0.00,WUHU216WMR100,2013-02-08 05:26:00,
2013-02-08 00:30:00,35.6,26.5,28.85,ESE,112,2.5,3.6,69,0.00,,,0.00,WUHU216WMR100,2013-02-08 05:30:00,
2013-02-08 00:35:00,35.4,26.7,28.85,ESE,112,2.5,3.1,70,0.00,,,0.00,WUHU216WMR100,2013-02-08 05:35:00,
2013-02-08 00:40:00,35.4,26.7,28.85,SSE,157,2.0,2.9,70,0.00,,,0.00,WUHU216WMR100,2013-02-08 05:40:00,
2013-02-08 00:45:00,35.4,27.0,28.85,SSE,157,2.5,3.1,71,0.00,,,0.00,WUHU216WMR100,2013-02-08 05:45:00,
2013-02-08 00:50:00,35.4,27.3,28.85,SSE,157,2.5,3.8,72,0.00,,,0.00,WUHU216WMR100,2013-02-08 05:50:00,
2013-02-08 00:55:00,35.2,27.1,28.85,ESE,112,2.2,3.8,72,0.00,,,0.00,WUHU216WMR100,2013-02-08 05:55:00,
2013-02-08 01:01:00,35.2,27.1,28.85,SSE,157,2.2,3.6,72,0.00,,,0.00,WUHU216WMR100,2013-02-08 06:01:00,
2013-02-08 01:05:00,35.2,27.1,28.85,ESE,112,2.0,3.1,72,0.00,,,0.00,WUHU216WMR100,2013-02-08 06:05:00,
2013-02-08 01:11:00,35.1,27.0,28.85,SE,135,1.6,3.4,72,0.00,,,0.00,WUHU216WMR100,2013-02-08 06:11:00,
2013-02-08 01:16:00,35.1,27.0,28.85,SSE,157,1.6,3.4,72,0.00,,,0.00,WUHU216WMR100,2013-02-08 06:16:00,
2013-02-08 01:21:00,35.1,27.0,28.85,SSE,157,0.0,2.5,72,0.00,,,0.00,WUHU216WMR100,2013-02-08 06:21:00,
2013-02-08 01:26:00,34.9,27.2,28.85,SE,135,1.6,2.5,73,0.00,,,0.00,WUHU216WMR100,2013-02-08 06:26:00,
2013-02-08 01:31:00,34.9,27.2,28.85,ESE,112,1.1,2.7,73,0.00,,,0.00,WUHU216WMR100,2013-02-08 06:31:00,
2013-02-08 01:36:00,34.7,27.0,28.82,ESE,112,0.0,2.7,73,0.00,,,0.00,WUHU216WMR100,2013-02-08 06:36:00,
2013-02-08 01:41:00,34.7,27.3,28.82,SSE,157,2.0,2.7,74,0.00,,,0.00,WUHU216WMR100,2013-02-08 06:41:00,
2013-02-08 01:46:00,34.5,27.1,28.82,ESE,112,1.1,2.7,74,0.00,,,0.00,WUHU216WMR100,2013-02-08 06:46:00,
2013-02-08 01:51:00,34.5,27.1,28.82,SE,135,0.9,2.5,74,0.00,,,0.00,WUHU216WMR100,2013-02-08 06:51:00,
2013-02-08 01:56:00,34.7,27.9,28.82,SE,135,2.7,3.1,76,0.00,,,0.00,WUHU216WMR100,2013-02-08 06:56:00,
2013-02-08 02:01:00,35.1,29.0,28.82,SE,135,2.5,4.0,78,0.00,,,0.00,WUHU216WMR100,2013-02-08 07:01:00,
2013-02-08 02:06:00,35.1,29.0,28.82,ESE,112,2.7,4.3,78,0.00,,,0.00,WUHU216WMR100,2013-02-08 07:06:00,
2013-02-08 02:11:00,35.2,29.1,28.82,SSE,157,2.9,4.3,78,0.00,,,0.00,WUHU216WMR100,2013-02-08 07:11:00,
2013-02-08 02:16:00,35.4,29.2,28.82,SSE,157,2.9,4.0,78,0.00,,,0.00,WUHU216WMR100,2013-02-08 07:16:00,
2013-02-08 02:21:00,35.4,29.2,28.82,SSE,157,1.3,3.4,78,0.00,,,0.00,WUHU216WMR100,2013-02-08 07:21:00,
2013-02-08 02:26:00,35.4,29.2,28.82,SE,135,2.5,3.4,78,0.00,,,0.00,WUHU216WMR100,2013-02-08 07:26:00,
2013-02-08 02:32:00,35.6,29.4,28.82,SSE,157,3.1,3.8,78,0.00,,,0.00,WUHU216WMR100,2013-02-08 07:32:00,
2013-02-08 02:37:00,35.4,28.9,28.82,SSE,157,2.0,3.8,77,0.00,,,0.00,WUHU216WMR100,2013-02-08 07:37:00,
2013-02-08 02:42:00,35.6,29.1,28.82,SSE,157,1.6,4.0,77,0.00,,,0.00,WUHU216WMR100,2013-02-08 07:42:00,
2013-02-08 02:47:00,35.4,29.2,28.82,SSE,157,2.5,4.0,78,0.00,,,0.00,WUHU216WMR100,2013-02-08 07:47:00,
2013-02-08 02:52:00,35.6,29.4,28.79,SSE,157,1.6,3.8,78,0.00,,,0.00,WUHU216WMR100,2013-02-08 07:52:00,
2013-02-08 02:57:00,35.6,29.4,28.79,SSE,157,2.0,3.8,78,0.00,,,0.00,WUHU216WMR100,2013-02-08 07:57:00,
2013-02-08 03:02:00,36.0,30.4,28.79,SE,135,2.5,4.0,80,0.00,,,0.00,WUHU216WMR100,2013-02-08 08:02:00,
2013-02-08 03:07:00,36.1,30.2,28.79,SSE,157,3.4,4.3,79,0.00,,,0.00,WUHU216WMR100,2013-02-08 08:07:00,
2013-02-08 03:12:00,36.3,30.4,28.79,South,180,2.5,4.9,79,0.00,,,0.00,WUHU216WMR100,2013-02-08 08:12:00,
2013-02-08 03:17:00,36.3,30.4,28.79,SSE,157,2.5,4.9,79,0.00,,,0.00,WUHU216WMR100,2013-02-08 08:17:00,
2013-02-08 03:22:00,36.3,30.4,28.82,SSE,157,3.4,3.8,79,0.00,,,0.00,WUHU216WMR100,2013-02-08 08:22:00,
2013-02-08 03:27:00,36.5,30.6,28.82,SSE,157,2.5,3.8,79,0.00,,,0.00,WUHU216WMR100,2013-02-08 08:27:00,
2013-02-08 03:32:00,36.5,30.6,28.82,ESE,112,2.2,4.0,79,0.00,,,0.00,WUHU216WMR100,2013-02-08 08:32:00,
2013-02-08 03:37:00,36.7,30.8,28.79,SSE,157,1.6,4.0,79,0.00,,,0.00,WUHU216WMR100,2013-02-08 08:37:00,
2013-02-08 03:42:00,36.7,30.8,28.79,ESE,112,2.0,3.6,79,0.00,,,0.00,WUHU216WMR100,2013-02-08 08:42:00,
2013-02-08 03:47:00,36.7,30.8,28.79,SSE,157,1.3,3.1,79,0.00,,,0.00,WUHU216WMR100,2013-02-08 08:47:00,
2013-02-08 03:52:00,36.9,31.0,28.79,ESE,112,1.6,2.9,79,0.00,,,0.00,WUHU216WMR100,2013-02-08 08:52:00,
2013-02-08 03:57:00,36.9,31.3,28.79,SSE,157,2.2,2.9,80,0.00,,,0.00,WUHU216WMR100,2013-02-08 08:57:00,
2013-02-08 04:02:00,37.0,31.4,28.79,SSW,202,2.0,2.9,80,0.00,,,0.00,WUHU216WMR100,2013-02-08 09:02:00,
2013-02-08 04:07:00,37.2,31.6,28.76,SSE,157,2.5,2.7,80,0.00,,,0.00,WUHU216WMR100,2013-02-08 09:07:00,
2013-02-08 04:12:00,37.4,31.8,28.76,SSE,157,2.5,3.6,80,0.00,,,0.00,WUHU216WMR100,2013-02-08 09:12:00,
2013-02-08 04:17:00,37.4,31.8,28.76,SSE,157,2.2,4.0,80,0.00,,,0.00,WUHU216WMR100,2013-02-08 09:17:00,
2013-02-08 04:22:00,37.9,32.3,28.76,SSW,202,2.7,4.0,80,0.00,,,0.00,WUHU216WMR100,2013-02-08 09:22:00,
2013-02-08 04:27:00,38.3,33.0,28.76,SSW,202,2.0,4.3,81,0.00,,,0.00,WUHU216WMR100,2013-02-08 09:27:00,
2013-02-08 04:32:00,38.7,33.4,28.76,SSW,202,2.2,4.3,81,0.00,,,0.00,WUHU216WMR100,2013-02-08 09:32:00,
2013-02-08 04:37:00,38.8,33.2,28.76,ESE,112,1.3,3.6,80,0.00,,,0.00,WUHU216WMR100,2013-02-08 09:37:00,
2013-02-08 04:42:00,38.7,32.8,28.76,ESE,112,1.1,2.9,79,0.00,,,0.00,WUHU216WMR100,2013-02-08 09:42:00,
2013-02-08 04:47:00,39.0,33.4,28.76,SSE,157,2.2,3.8,80,0.00,,,0.00,WUHU216WMR100,2013-02-08 09:47:00,
2013-02-08 04:52:00,39.0,33.1,28.76,South,180,1.3,3.8,79,0.00,,,0.00,WUHU216WMR100,2013-02-08 09:52:00,
2013-02-08 04:58:00,40.3,34.6,28.76,SSW,202,6.5,8.5,80,0.00,,,0.00,WUHU216WMR100,2013-02-08 09:58:00,
2013-02-08 05:03:00,40.8,34.2,28.76,SSE,157,4.3,9.2,77,0.00,,,0.00,WUHU216WMR100,2013-02-08 10:03:00,
2013-02-08 05:07:00,41.0,34.1,28.76,SSE,157,4.7,9.2,76,0.00,,,0.00,WUHU216WMR100,2013-02-08 10:07:00,
2013-02-08 05:13:00,41.4,34.1,28.76,SSE,157,5.8,8.5,75,0.00,,,0.00,WUHU216WMR100,2013-02-08 10:13:00,
2013-02-08 05:17:00,41.4,33.8,28.76,South,180,4.5,8.5,74,0.00,,,0.00,WUHU216WMR100,2013-02-08 10:17:00,
2013-02-08 05:22:00,41.7,33.8,28.73,SSE,157,5.6,8.7,73,0.00,,,0.00,WUHU216WMR100,2013-02-08 10:22:00,
2013-02-08 05:28:00,41.7,33.8,28.73,SW,225,6.0,8.7,73,0.00,,,0.00,WUHU216WMR100,2013-02-08 10:28:00,
2013-02-08 05:33:00,41.5,33.6,28.73,SSE,157,4.5,8.1,73,0.00,,,0.00,WUHU216WMR100,2013-02-08 10:33:00,
2013-02-08 05:38:00,41.5,33.6,28.73,South,180,3.4,8.5,73,0.00,,,0.00,WUHU216WMR100,2013-02-08 10:38:00,
2013-02-08 05:43:00,41.5,33.6,28.73,SSE,157,7.4,8.5,73,0.00,,,0.00,WUHU216WMR100,2013-02-08 10:43:00,
2013-02-08 05:48:00,41.5,33.6,28.73,SSE,157,4.7,8.5,73,0.00,,,0.00,WUHU216WMR100,2013-02-08 10:48:00,
2013-02-08 05:53:00,41.5,33.9,28.73,SSE,157,4.7,7.8,74,0.00,,,0.00,WUHU216WMR100,2013-02-08 10:53:00,
2013-02-08 05:58:00,41.4,34.1,28.73,SSE,157,5.8,8.1,75,0.00,,,0.00,WUHU216WMR100,2013-02-08 10:58:00,
2013-02-08 06:03:00,41.2,33.9,28.73,SSW,202,4.5,8.1,75,0.00,,,0.00,WUHU216WMR100,2013-02-08 11:03:00,
2013-02-08 06:08:00,41.2,33.9,28.73,SSW,202,5.4,10.1,75,0.00,,,0.00,WUHU216WMR100,2013-02-08 11:08:00,
2013-02-08 06:13:00,41.2,33.9,28.73,SSE,157,4.9,10.1,75,0.00,,,0.00,WUHU216WMR100,2013-02-08 11:13:00,
2013-02-08 06:18:00,41.0,34.1,28.73,South,180,4.0,9.6,76,0.00,,,0.00,WUHU216WMR100,2013-02-08 11:18:00,
2013-02-08 06:23:00,41.0,34.1,28.73,South,180,5.4,8.7,76,0.00,,,0.00,WUHU216WMR100,2013-02-08 11:23:00,
2013-02-08 06:28:00,40.6,34.0,28.73,SSW,202,2.5,8.7,77,0.00,,,0.00,WUHU216WMR100,2013-02-08 11:28:00,
2013-02-08 06:33:00,40.6,34.3,28.73,SSW,202,2.5,8.5,78,0.00,,,0.00,WUHU216WMR100,2013-02-08 11:33:00,
2013-02-08 06:38:00,40.5,34.8,28.76,SW,225,3.8,5.8,80,0.00,,,0.00,WUHU216WMR100,2013-02-08 11:38:00,
2013-02-08 06:43:00,40.3,34.9,28.76,SSW,202,2.7,5.8,81,0.00,,,0.00,WUHU216WMR100,2013-02-08 11:43:00,
2013-02-08 06:48:00,40.3,35.2,28.76,WSW,247,3.1,5.8,82,0.00,,,0.00,WUHU216WMR100,2013-02-08 11:48:00,
2013-02-08 06:53:00,40.3,35.5,28.76,SSW,202,4.7,5.8,83,0.00,,,0.00,WUHU216WMR100,2013-02-08 11:53:00,
2013-02-08 06:58:00,40.1,35.6,28.76,SW,225,2.5,5.8,84,0.00,,,0.00,WUHU216WMR100,2013-02-08 11:58:00,
2013-02-08 07:03:00,39.7,35.2,28.76,WSW,247,1.6,5.8,84,0.00,,,0.00,WUHU216WMR100,2013-02-08 12:03:00,
2013-02-08 07:08:00,39.7,35.5,28.76,SSW,202,2.7,5.4,85,0.00,,,0.00,WUHU216WMR100,2013-02-08 12:08:00,
2013-02-08 07:13:00,39.7,35.8,28.76,SW,225,1.6,6.0,86,0.04,,,0.04,WUHU216WMR100,2013-02-08 12:13:00,
2013-02-08 07:18:00,39.7,36.1,28.76,SSW,202,3.6,6.0,87,0.04,,,0.04,WUHU216WMR100,2013-02-08 12:18:00,
2013-02-08 07:23:00,39.6,36.3,28.76,WSW,247,2.0,4.9,88,0.04,,,0.04,WUHU216WMR100,2013-02-08 12:23:00,
2013-02-08 07:28:00,39.4,36.1,28.76,SSW,202,2.5,7.2,88,0.04,,,0.04,WUHU216WMR100,2013-02-08 12:28:00,
2013-02-08 07:33:00,39.4,36.1,28.76,South,180,2.7,7.2,88,0.04,,,0.04,WUHU216WMR100,2013-02-08 12:33:00,
2013-02-08 07:38:00,39.4,36.4,28.76,West,270,2.2,3.8,89,0.08,,,0.08,WUHU216WMR100,2013-02-08 12:38:00,
2013-02-08 07:43:00,39.4,36.9,28.76,WSW,247,2.7,4.3,91,0.08,,,0.08,WUHU216WMR100,2013-02-08 12:43:00,
2013-02-08 07:48:00,39.4,37.2,28.76,SSW,202,2.7,5.6,92,0.08,,,0.08,WUHU216WMR100,2013-02-08 12:48:00,
2013-02-08 07:53:00,39.4,37.8,28.79,SSW,202,2.9,6.3,94,0.00,,,0.08,WUHU216WMR100,2013-02-08 12:53:00,
2013-02-08 07:58:00,39.2,37.6,28.79,WSW,247,2.7,6.7,94,0.00,,,0.08,WUHU216WMR100,2013-02-08 12:58:00,
2013-02-08 08:03:00,39.2,37.6,28.79,WNW,292,2.0,6.7,94,0.00,,,0.08,WUHU216WMR100,2013-02-08 13:03:00,
2013-02-08 08:08:00,39.0,37.4,28.79,West,270,2.7,4.9,94,0.00,,,0.08,WUHU216WMR100,2013-02-08 13:08:00,
2013-02-08 08:13:00,38.8,37.4,28.79,SSW,202,1.3,5.8,95,0.04,,,0.12,WUHU216WMR100,2013-02-08 13:13:00,
2013-02-08 08:18:00,39.0,37.6,28.79,South,180,2.7,5.8,95,0.04,,,0.12,WUHU216WMR100,2013-02-08 13:18:00,
2013-02-08 08:24:00,38.8,37.7,28.79,WSW,247,2.0,5.8,96,0.04,,,0.12,WUHU216WMR100,2013-02-08 13:24:00,
2013-02-08 08:29:00,38.8,37.7,28.79,WSW,247,2.2,4.3,96,0.04,,,0.12,WUHU216WMR100,2013-02-08 13:29:00,
2013-02-08 08:34:00,38.8,37.7,28.79,SSW,202,0.9,3.6,96,0.04,,,0.12,WUHU216WMR100,2013-02-08 13:34:00,
2013-02-08 08:39:00,38.7,37.6,28.79,West,270,3.1,6.7,96,0.04,,,0.12,WUHU216WMR100,2013-02-08 13:39:00,
2013-02-08 08:44:00,38.7,37.6,28.79,WSW,247,2.9,6.7,96,0.04,,,0.12,WUHU216WMR100,2013-02-08 13:44:00,
2013-02-08 08:49:00,38.7,37.6,28.79,WSW,247,3.6,6.5,96,0.04,,,0.12,WUHU216WMR100,2013-02-08 13:49:00,
2013-02-08 08:54:00,38.5,37.4,28.79,WNW,292,4.3,7.8,96,0.04,,,0.12,WUHU216WMR100,2013-02-08 13:54:00,
2013-02-08 08:59:00,38.5,37.1,28.79,NNW,337,6.3,8.7,95,0.04,,,0.12,WUHU216WMR100,2013-02-08 13:59:00,
2013-02-08 09:04:00,38.3,36.4,28.79,SSE,157,6.3,8.7,93,0.04,,,0.12,WUHU216WMR100,2013-02-08 14:04:00,
2013-02-08 09:09:00,38.3,35.9,28.79,West,270,4.7,9.8,91,0.00,,,0.12,WUHU216WMR100,2013-02-08 14:09:00,
2013-02-08 09:14:00,38.1,35.4,28.79,West,270,5.6,9.8,90,0.00,,,0.12,WUHU216WMR100,2013-02-08 14:14:00,
2013-02-08 09:19:00,37.9,35.2,28.79,SSE,157,7.4,11.9,90,0.00,,,0.12,WUHU216WMR100,2013-02-08 14:19:00,
2013-02-08 09:24:00,37.9,35.2,28.79,WSW,247,7.8,11.9,90,0.00,,,0.12,WUHU216WMR100,2013-02-08 14:24:00,
2013-02-08 09:29:00,37.8,35.1,28.79,WSW,247,5.6,11.2,90,0.00,,,0.12,WUHU216WMR100,2013-02-08 14:29:00,
2013-02-08 09:34:00,37.4,35.2,28.79,West,270,4.9,11.9,92,0.00,,,0.12,WUHU216WMR100,2013-02-08 14:34:00,
2013-02-08 09:39:00,37.2,35.3,28.82,WNW,292,4.7,11.9,93,0.00,,,0.12,WUHU216WMR100,2013-02-08 14:39:00,
2013-02-08 09:44:00,37.0,35.1,28.82,WNW,292,4.7,9.6,93,0.00,,,0.12,WUHU216WMR100,2013-02-08 14:44:00,
2013-02-08 09:49:00,36.9,35.0,28.82,NW,315,3.6,8.7,93,0.00,,,0.12,WUHU216WMR100,2013-02-08 14:49:00,
2013-02-08 09:54:00,36.7,35.1,28.82,NNW,337,4.0,8.7,94,0.00,,,0.12,WUHU216WMR100,2013-02-08 14:54:00,
2013-02-08 09:59:00,36.5,34.9,28.82,NNW,337,2.9,8.7,94,0.00,,,0.12,WUHU216WMR100,2013-02-08 14:59:00,
2013-02-08 10:04:00,36.3,34.7,28.82,SSW,202,2.0,6.0,94,0.00,,,0.12,WUHU216WMR100,2013-02-08 15:04:00,
2013-02-08 10:09:00,36.3,34.7,28.82,NNW,337,4.5,9.8,94,0.00,,,0.12,WUHU216WMR100,2013-02-08 15:09:00,
2013-02-08 10:14:00,36.1,34.2,28.82,SW,225,8.1,9.8,93,0.00,,,0.12,WUHU216WMR100,2013-02-08 15:14:00,
2013-02-08 10:19:00,35.8,33.1,28.82,NW,315,5.6,11.9,90,0.00,,,0.12,WUHU216WMR100,2013-02-08 15:19:00,
2013-02-08 10:24:00,35.8,32.8,28.85,NNW,337,5.8,11.9,89,0.00,,,0.12,WUHU216WMR100,2013-02-08 15:24:00,
2013-02-08 10:29:00,35.6,32.6,28.85,NNW,337,4.9,10.1,89,0.00,,,0.12,WUHU216WMR100,2013-02-08 15:29:00,
2013-02-08 10:34:00,35.4,32.4,28.85,WNW,292,7.4,12.8,89,0.00,,,0.12,WUHU216WMR100,2013-02-08 15:34:00,
2013-02-08 10:39:00,35.4,32.4,28.85,WNW,292,4.9,12.8,89,0.00,,,0.12,WUHU216WMR100,2013-02-08 15:39:00,
2013-02-08 10:44:00,35.1,31.9,28.85,WSW,247,8.5,14.5,88,0.00,,,0.12,WUHU216WMR100,2013-02-08 15:44:00,
2013-02-08 10:49:00,34.9,31.7,28.85,SE,135,10.3,15.2,88,0.00,,,0.12,WUHU216WMR100,2013-02-08 15:49:00,
2013-02-08 10:54:00,34.9,31.7,28.85,WNW,292,5.8,15.2,88,0.00,,,0.12,WUHU216WMR100,2013-02-08 15:54:00,
2013-02-08 10:59:00,34.7,31.5,28.85,West,270,8.9,19.0,88,0.00,,,0.12,WUHU216WMR100,2013-02-08 15:59:00,
2013-02-08 11:04:00,34.5,31.3,28.85,WNW,292,7.2,19.0,88,0.00,,,0.12,WUHU216WMR100,2013-02-08 16:04:00,
2013-02-08 11:09:00,34.3,31.1,28.85,NNW,337,6.3,12.1,88,0.00,,,0.12,WUHU216WMR100,2013-02-08 16:09:00,
2013-02-08 11:14:00,34.3,31.1,28.85,North,0,6.3,12.1,88,0.00,,,0.12,WUHU216WMR100,2013-02-08 16:14:00,
2013-02-08 11:19:00,34.3,31.4,28.88,North,0,4.9,8.5,89,0.00,,,0.12,WUHU216WMR100,2013-02-08 16:19:00,
2013-02-08 11:24:00,34.2,31.0,28.88,NNW,337,6.3,12.5,88,0.00,,,0.12,WUHU216WMR100,2013-02-08 16:24:00,
2013-02-08 11:29:00,34.0,30.8,28.88,NW,315,6.0,12.5,88,0.00,,,0.12,WUHU216WMR100,2013-02-08 16:29:00,
2013-02-08 11:34:00,34.0,30.8,28.88,WNW,292,7.6,15.2,88,0.00,,,0.12,WUHU216WMR100,2013-02-08 16:34:00,
2013-02-08 11:39:00,34.0,30.5,28.88,NW,315,8.9,15.2,87,0.00,,,0.12,WUHU216WMR100,2013-02-08 16:39:00,
2013-02-08 11:44:00,33.8,30.3,28.88,SE,135,7.4,12.3,87,0.00,,,0.12,WUHU216WMR100,2013-02-08 16:44:00,
2013-02-08 11:49:00,33.8,30.3,28.88,NNW,337,3.8,8.9,87,0.00,,,0.12,WUHU216WMR100,2013-02-08 16:49:00,
2013-02-08 11:54:00,33.8,29.7,28.88,NNW,337,5.4,10.3,85,0.00,,,0.12,WUHU216WMR100,2013-02-08 16:54:00,
2013-02-08 11:59:00,33.8,29.2,28.88,NNW,337,5.8,10.3,83,0.00,,,0.12,WUHU216WMR100,2013-02-08 16:59:00,
2013-02-08 12:04:00,33.6,28.1,28.88,WNW,292,4.3,11.9,80,0.00,,,0.12,WUHU216WMR100,2013-02-08 17:04:00,
2013-02-08 12:09:00,33.6,27.5,28.88,NW,315,6.7,13.9,78,0.00,,,0.12,WUHU216WMR100,2013-02-08 17:09:00,
2013-02-08 12:14:00,33.4,27.3,28.88,WSW,247,6.0,13.9,78,0.00,,,0.12,WUHU216WMR100,2013-02-08 17:14:00,
2013-02-08 12:19:00,33.3,27.5,28.91,WSW,247,6.3,12.5,79,0.00,,,0.12,WUHU216WMR100,2013-02-08 17:19:00,
2013-02-08 12:24:00,33.3,27.2,28.91,NNW,337,5.4,14.3,78,0.00,,,0.12,WUHU216WMR100,2013-02-08 17:24:00,
2013-02-08 12:29:00,33.3,26.9,28.91,WNW,292,7.4,14.3,77,0.00,,,0.12,WUHU216WMR100,2013-02-08 17:29:00,
2013-02-08 12:34:00,33.1,26.4,28.91,NNW,337,6.5,14.3,76,0.00,,,0.12,WUHU216WMR100,2013-02-08 17:34:00,
2013-02-08 12:39:00,33.1,26.4,28.91,NNW,337,7.8,13.0,76,0.00,,,0.12,WUHU216WMR100,2013-02-08 17:39:00,
2013-02-08 12:44:00,32.9,26.2,28.91,NNW,337,9.2,16.8,76,0.00,,,0.12,WUHU216WMR100,2013-02-08 17:44:00,
2013-02-08 12:49:00,32.9,26.2,28.91,NNW,337,4.7,16.8,76,0.00,,,0.12,WUHU216WMR100,2013-02-08 17:49:00,
2013-02-08 12:54:00,32.7,26.0,28.91,NW,315,7.8,18.8,76,0.00,,,0.12,WUHU216WMR100,2013-02-08 17:54:00,
2013-02-08 12:59:00,32.7,26.0,28.91,WNW,292,9.6,18.8,76,0.00,,,0.12,WUHU216WMR100,2013-02-08 17:59:00,
2013-02-08 13:04:00,32.7,26.0,28.91,WSW,247,4.5,17.4,76,0.00,,,0.12,WUHU216WMR100,2013-02-08 18:04:00,
2013-02-08 13:10:00,32.5,25.8,28.91,NNW,337,8.9,17.7,76,0.00,,,0.12,WUHU216WMR100,2013-02-08 18:10:00,
2013-02-08 13:15:00,32.5,25.8,28.91,WNW,292,8.7,17.7,76,0.00,,,0.12,WUHU216WMR100,2013-02-08 18:15:00,
2013-02-08 13:20:00,32.5,25.8,28.91,NW,315,6.0,13.0,76,0.00,,,0.12,WUHU216WMR100,2013-02-08 18:20:00,
2013-02-08 13:25:00,32.4,25.4,28.91,NNW,337,6.3,13.2,75,0.00,,,0.12,WUHU216WMR100,2013-02-08 18:25:00,
2013-02-08 13:30:00,32.5,25.5,28.91,NNW,337,8.7,18.6,75,0.00,,,0.12,WUHU216WMR100,2013-02-08 18:30:00,
2013-02-08 13:35:00,32.5,24.9,28.94,WNW,292,6.5,18.6,73,0.00,,,0.12,WUHU216WMR100,2013-02-08 18:35:00,
2013-02-08 13:41:00,32.4,23.8,28.94,WNW,292,11.2,18.6,70,0.00,,,0.12,WUHU216WMR100,2013-02-08 18:41:00,
2013-02-08 13:46:00,32.2,22.9,28.94,NNW,337,6.9,18.6,68,0.00,,,0.12,WUHU216WMR100,2013-02-08 18:46:00,
2013-02-08 13:51:00,32.0,23.4,28.94,NNW,337,7.2,14.5,70,0.00,,,0.12,WUHU216WMR100,2013-02-08 18:51:00,
2013-02-08 13:56:00,31.8,23.5,28.94,WNW,292,6.0,14.5,71,0.00,,,0.12,WUHU216WMR100,2013-02-08 18:56:00,
2013-02-08 14:01:00,31.5,23.2,28.94,SW,225,8.5,13.2,71,0.00,,,0.12,WUHU216WMR100,2013-02-08 19:01:00,
2013-02-08 14:06:00,31.5,23.6,28.94,WNW,292,4.3,13.2,72,0.00,,,0.12,WUHU216WMR100,2013-02-08 19:06:00,
2013-02-08 14:11:00,31.3,23.7,28.94,NNW,337,3.8,10.5,73,0.00,,,0.12,WUHU216WMR100,2013-02-08 19:11:00,
2013-02-08 14:16:00,31.1,23.5,28.94,NNW,337,6.0,10.5,73,0.00,,,0.12,WUHU216WMR100,2013-02-08 19:16:00,
2013-02-08 14:21:00,31.1,23.5,28.94,NNW,337,4.5,12.3,73,0.00,,,0.12,WUHU216WMR100,2013-02-08 19:21:00,
2013-02-08 14:26:00,30.9,23.3,28.94,NNW,337,6.3,12.3,73,0.00,,,0.12,WUHU216WMR100,2013-02-08 19:26:00,
2013-02-08 14:31:00,30.7,21.8,28.94,NW,315,7.4,11.0,69,0.00,,,0.12,WUHU216WMR100,2013-02-08 19:31:00,
2013-02-08 14:36:00,30.7,22.1,28.97,NNW,337,6.3,11.0,70,0.00,,,0.12,WUHU216WMR100,2013-02-08 19:36:00,
2013-02-08 14:41:00,30.7,22.1,28.97,WSW,247,5.4,11.0,70,0.00,,,0.12,WUHU216WMR100,2013-02-08 19:41:00,
2013-02-08 14:46:00,30.9,22.7,28.97,North,0,4.5,11.0,71,0.00,,,0.12,WUHU216WMR100,2013-02-08 19:46:00,
2013-02-08 14:51:00,30.9,21.6,28.97,NNW,337,5.8,15.2,68,0.00,,,0.12,WUHU216WMR100,2013-02-08 19:51:00,
2013-02-08 14:56:00,30.9,20.9,28.97,North,0,7.6,15.2,66,0.00,,,0.12,WUHU216WMR100,2013-02-08 19:56:00,
2013-02-08 15:01:00,30.9,20.6,28.97,SSE,157,10.5,16.3,65,0.00,,,0.12,WUHU216WMR100,2013-02-08 20:01:00,
2013-02-08 15:06:00,30.6,19.2,28.97,NNW,337,12.5,26.2,62,0.00,,,0.12,WUHU216WMR100,2013-02-08 20:06:00,
2013-02-08 15:11:00,30.6,19.9,28.97,North,0,10.7,26.2,64,0.00,,,0.12,WUHU216WMR100,2013-02-08 20:11:00,
2013-02-08 15:16:00,30.6,20.3,28.97,NNE,22,11.0,13.0,65,0.00,,,0.12,WUHU216WMR100,2013-02-08 20:16:00,
2013-02-08 15:21:00,30.4,20.1,28.97,NW,315,9.4,16.8,65,0.00,,,0.12,WUHU216WMR100,2013-02-08 20:21:00,
2013-02-08 15:26:00,30.4,20.8,28.97,NNW,337,7.4,16.8,67,0.00,,,0.12,WUHU216WMR100,2013-02-08 20:26:00,
2013-02-08 15:31:00,30.2,21.0,28.97,NNW,337,9.2,15.2,68,0.00,,,0.12,WUHU216WMR100,2013-02-08 20:31:00,
2013-02-08 15:36:00,30.2,21.3,29.00,North,0,8.9,17.0,69,0.00,,,0.12,WUHU216WMR100,2013-02-08 20:36:00,
2013-02-08 15:41:00,30.2,20.6,29.00,NNW,337,6.9,19.9,67,0.00,,,0.12,WUHU216WMR100,2013-02-08 20:41:00,
2013-02-08 15:46:00,30.0,20.8,29.00,WNW,292,8.5,19.9,68,0.00,,,0.12,WUHU216WMR100,2013-02-08 20:46:00,
2013-02-08 15:51:00,29.8,20.9,29.00,WSW,247,8.5,16.3,69,0.00,,,0.12,WUHU216WMR100,2013-02-08 20:51:00,
2013-02-08 15:56:00,29.7,20.8,29.00,NNW,337,8.9,17.4,69,0.00,,,0.12,WUHU216WMR100,2013-02-08 20:56:00,
2013-02-08 16:01:00,29.5,20.6,29.00,WNW,292,7.8,19.5,69,0.00,,,0.12,WUHU216WMR100,2013-02-08 21:01:00,
2013-02-08 16:06:00,29.5,20.6,29.03,NW,315,3.6,19.5,69,0.00,,,0.12,WUHU216WMR100,2013-02-08 21:06:00,
2013-02-08 16:11:00,29.5,20.3,29.03,North,0,10.7,15.2,68,0.00,,,0.12,WUHU216WMR100,2013-02-08 21:11:00,
2013-02-08 16:16:00,29.5,20.6,29.03,WSW,247,4.7,12.8,69,0.00,,,0.12,WUHU216WMR100,2013-02-08 21:16:00,
2013-02-08 16:21:00,29.5,20.3,29.03,WSW,247,9.2,13.0,68,0.00,,,0.12,WUHU216WMR100,2013-02-08 21:21:00,
2013-02-08 16:26:00,29.5,20.3,29.03,North,0,9.6,15.4,68,0.00,,,0.12,WUHU216WMR100,2013-02-08 21:26:00,
2013-02-08 16:31:00,29.3,19.8,29.03,North,0,10.5,23.9,67,0.00,,,0.12,WUHU216WMR100,2013-02-08 21:31:00,
2013-02-08 16:36:00,29.1,19.6,29.03,North,0,6.0,23.9,67,0.00,,,0.12,WUHU216WMR100,2013-02-08 21:36:00,
2013-02-08 16:41:00,28.9,19.4,29.03,NNW,337,9.6,19.5,67,0.00,,,0.12,WUHU216WMR100,2013-02-08 21:41:00,
2013-02-08 16:46:00,28.9,19.7,29.03,NNW,337,12.3,18.6,68,0.00,,,0.12,WUHU216WMR100,2013-02-08 21:46:00,
2013-02-08 16:57:00,28.8,20.3,29.03,NNW,337,6.0,6.0,70,0.00,SHSN,,0.00,WUHU216WMR100,2013-02-08 21:57:00,
2013-02-08 17:03:00,28.8,20.3,29.03,NNW,337,7.2,10.3,70,0.00,SHSN,,0.00,WUHU216WMR100,2013-02-08 22:03:00,
2013-02-08 17:07:00,28.6,20.1,29.06,NNW,337,9.6,13.9,70,0.00,SHSN,,0.00,WUHU216WMR100,2013-02-08 22:07:00,
2013-02-08 17:13:00,28.6,19.4,29.06,NNW,337,8.9,14.8,68,0.00,SHSN,,0.00,WUHU216WMR100,2013-02-08 22:13:00,
2013-02-08 17:17:00,28.4,19.2,29.06,NW,315,6.9,16.8,68,0.00,SHSN,,0.00,WUHU216WMR100,2013-02-08 22:17:00,
2013-02-08 17:22:00,28.0,19.5,29.06,NNW,337,11.9,16.8,70,0.00,SHSN,,0.00,WUHU216WMR100,2013-02-08 22:22:00,
2013-02-08 17:27:00,28.0,19.9,29.06,NNW,337,6.9,17.4,71,0.00,SHSN,,0.00,WUHU216WMR100,2013-02-08 22:27:00,
2013-02-08 17:32:00,28.0,20.2,29.06,NNW,337,4.7,17.4,72,0.00,SHSN,,0.00,WUHU216WMR100,2013-02-08 22:32:00,
2013-02-08 17:37:00,27.9,20.4,29.06,NW,315,7.8,13.0,73,0.00,SHSN,,0.00,WUHU216WMR100,2013-02-08 22:37:00,
2013-02-08 17:42:00,27.9,20.7,29.06,West,270,6.0,12.1,74,0.00,SHSN,,0.00,WUHU216WMR100,2013-02-08 22:42:00,
2013-02-08 17:47:00,27.9,20.7,29.06,North,0,8.1,12.3,74,0.00,SHSN,,0.00,WUHU216WMR100,2013-02-08 22:47:00,
2013-02-08 17:52:00,27.9,20.7,29.06,NNW,337,8.5,15.2,74,0.00,SHSN,,0.00,WUHU216WMR100,2013-02-08 22:52:00,
2013-02-08 17:57:00,28.0,21.1,29.06,NNW,337,5.6,15.2,75,0.00,SHSN,,0.00,WUHU216WMR100,2013-02-08 22:57:00,
2013-02-08 18:02:00,28.0,21.1,29.06,North,0,7.8,11.0,75,0.00,SHSN,,0.00,WUHU216WMR100,2013-02-08 23:02:00,
2013-02-08 18:07:00,28.0,21.4,29.09,NNW,337,6.0,12.1,76,0.00,SHSN,,0.00,WUHU216WMR100,2013-02-08 23:07:00,
2013-02-08 18:12:00,27.9,21.0,29.09,North,0,8.9,13.4,75,0.00,SHSN,,0.00,WUHU216WMR100,2013-02-08 23:12:00,
2013-02-08 18:17:00,27.7,20.5,29.09,WNW,292,7.8,19.5,74,0.00,SHSN,,0.00,WUHU216WMR100,2013-02-08 23:17:00,
2013-02-08 18:23:00,27.7,20.8,29.09,WNW,292,7.2,19.5,75,0.00,SHSN,,0.00,WUHU216WMR100,2013-02-08 23:23:00,
2013-02-08 18:27:00,27.5,20.3,29.09,NNW,337,8.5,11.2,74,0.00,SHSN,,0.00,WUHU216WMR100,2013-02-08 23:27:00,
2013-02-08 18:33:00,27.3,20.1,29.09,North,0,7.2,14.5,74,0.00,SHSN,,0.00,WUHU216WMR100,2013-02-08 23:33:00,
2013-02-08 18:38:00,27.3,20.1,29.09,NNW,337,5.8,14.5,74,0.00,SHSN,,0.00,WUHU216WMR100,2013-02-08 23:38:00,
2013-02-08 18:42:00,27.1,20.0,29.09,NNW,337,6.5,12.8,74,0.00,SHSN,,0.00,WUHU216WMR100,2013-02-08 23:42:00,
2013-02-08 18:48:00,27.0,20.2,29.09,North,0,3.4,12.8,75,0.00,SHSN,,0.00,WUHU216WMR100,2013-02-08 23:48:00,
2013-02-08 18:52:00,27.0,19.9,29.09,North,0,5.8,13.0,74,0.00,SHSN,,0.00,WUHU216WMR100,2013-02-08 23:52:00,
2013-02-08 18:57:00,27.0,20.2,29.09,NNW,337,2.9,13.0,75,0.00,SHSN,,0.00,WUHU216WMR100,2013-02-08 23:57:00,
2013-02-08 19:02:00,27.0,20.2,29.09,NNE,22,3.8,10.3,75,0.00,SHSN,,0.00,WUHU216WMR100,2013-02-09 00:02:00,
2013-02-08 19:07:00,27.0,20.2,29.12,NNW,337,5.4,7.8,75,0.00,SHSN,,0.00,WUHU216WMR100,2013-02-09 00:07:00,
2013-02-08 19:12:00,27.0,19.9,29.12,WNW,292,6.9,10.1,74,0.00,SHSN,,0.00,WUHU216WMR100,2013-02-09 00:12:00,
2013-02-08 19:17:00,27.1,20.0,29.12,North,0,6.0,11.0,74,0.00,SHSN,,0.00,WUHU216WMR100,2013-02-09 00:17:00,
2013-02-08 19:23:00,27.1,19.0,29.12,North,0,9.2,15.2,71,0.00,SHSN,,0.00,WUHU216WMR100,2013-02-09 00:23:00,
2013-02-08 19:27:00,27.0,18.2,29.12,NNW,337,8.1,15.4,69,0.00,SHSN,,0.00,WUHU216WMR100,2013-02-09 00:27:00,
2013-02-08 19:32:00,27.0,17.9,29.12,NNW,337,4.5,15.4,68,0.00,SHSN,,0.00,WUHU216WMR100,2013-02-09 00:32:00,
2013-02-08 19:37:00,26.8,17.0,29.12,North,0,8.7,17.4,66,0.00,SHSN,,0.00,WUHU216WMR100,2013-02-09 00:37:00,
2013-02-08 19:42:00,26.8,16.7,29.12,North,0,10.5,17.4,65,0.00,SHSN,,0.00,WUHU216WMR100,2013-02-09 00:42:00,
2013-02-08 19:47:00,26.8,17.0,29.12,North,0,4.7,15.4,66,0.00,SHSN,,0.00,WUHU216WMR100,2013-02-09 00:47:00,
2013-02-08 19:52:00,26.6,16.8,29.12,North,0,6.0,13.6,66,0.00,SHSN,,0.00,WUHU216WMR100,2013-02-09 00:52:00,
2013-02-08 19:57:00,26.6,17.2,29.12,NNW,337,4.7,16.1,67,0.00,,,0.00,WUHU216WMR100,2013-02-09 00:57:00,
2013-02-08 20:02:00,26.6,17.2,29.12,North,0,4.7,16.1,67,0.00,,,0.00,WUHU216WMR100,2013-02-09 01:02:00,
2013-02-08 20:08:00,26.6,17.5,29.15,NNW,337,3.1,14.5,68,0.00,,,0.00,WUHU216WMR100,2013-02-09 01:08:00,
2013-02-08 20:12:00,26.6,17.9,29.15,NNW,337,3.8,9.8,69,0.00,,,0.00,WUHU216WMR100,2013-02-09 01:12:00,
2013-02-08 20:17:00,26.4,17.7,29.15,WSW,247,4.5,12.1,69,0.00,,,0.00,WUHU216WMR100,2013-02-09 01:17:00,
2013-02-08 20:22:00,26.4,17.7,29.15,North,0,3.6,12.1,69,0.00,,,0.00,WUHU216WMR100,2013-02-09 01:22:00,
2013-02-08 20:27:00,26.4,18.0,29.15,North,0,6.0,11.0,70,0.00,,,0.00,WUHU216WMR100,2013-02-09 01:27:00,
2013-02-08 20:32:00,26.4,18.0,29.15,NNW,337,6.3,11.0,70,0.00,,,0.00,WUHU216WMR100,2013-02-09 01:32:00,
2013-02-08 20:38:00,26.4,18.0,29.15,WNW,292,5.6,11.0,70,0.00,,,0.00,WUHU216WMR100,2013-02-09 01:38:00,
2013-02-08 20:43:00,26.4,18.0,29.15,WNW,292,4.0,11.0,70,0.00,,,0.00,WUHU216WMR100,2013-02-09 01:43:00,
2013-02-08 20:48:00,26.4,17.7,29.15,NNW,337,9.4,12.8,69,0.00,,,0.00,WUHU216WMR100,2013-02-09 01:48:00,
2013-02-08 20:53:00,26.4,17.7,29.15,NNW,337,7.2,13.6,69,0.00,,,0.00,WUHU216WMR100,2013-02-09 01:53:00,
2013-02-08 20:58:00,26.4,17.3,29.15,West,270,9.2,13.6,68,0.00,,,0.00,WUHU216WMR100,2013-02-09 01:58:00,
2013-02-08 21:03:00,26.4,17.7,29.15,West,270,6.0,16.6,69,0.00,,,0.00,WUHU216WMR100,2013-02-09 02:03:00,
2013-02-08 21:07:00,26.4,17.7,29.18,NNW,337,3.6,16.6,69,0.00,,,0.00,WUHU216WMR100,2013-02-09 02:07:00,
2013-02-08 21:12:00,26.4,17.0,29.18,WNW,292,9.8,15.2,67,0.00,,,0.00,WUHU216WMR100,2013-02-09 02:12:00,
2013-02-08 21:17:00,26.4,16.3,29.18,WNW,292,6.7,15.2,65,0.00,,,0.00,WUHU216WMR100,2013-02-09 02:17:00,
2013-02-08 21:22:00,26.4,15.9,29.18,North,0,8.5,17.7,64,0.00,,,0.00,WUHU216WMR100,2013-02-09 02:22:00,
2013-02-08 21:27:00,26.4,16.6,29.18,WNW,292,7.2,17.7,66,0.00,,,0.00,WUHU216WMR100,2013-02-09 02:27:00,
2013-02-08 21:32:00,26.4,17.0,29.18,North,0,8.5,13.6,67,0.00,,,0.00,WUHU216WMR100,2013-02-09 02:32:00,
2013-02-08 21:37:00,26.4,17.3,29.18,NNW,337,6.0,14.1,68,0.00,,,0.00,WUHU216WMR100,2013-02-09 02:37:00,
2013-02-08 21:42:00,26.4,17.3,29.18,NNW,337,6.5,14.1,68,0.00,,,0.00,WUHU216WMR100,2013-02-09 02:42:00,
2013-02-08 21:47:00,26.2,17.5,29.18,North,0,6.5,17.0,69,0.00,,,0.00,WUHU216WMR100,2013-02-09 02:47:00,
2013-02-08 21:52:00,26.2,17.5,29.21,NW,315,5.4,17.0,69,0.00,,,0.00,WUHU216WMR100,2013-02-09 02:52:00,
2013-02-08 21:57:00,26.2,17.8,29.21,WNW,292,5.4,13.0,70,0.00,,,0.00,WUHU216WMR100,2013-02-09 02:57:00,
2013-02-08 22:02:00,26.1,17.7,29.21,West,270,4.9,14.5,70,0.00,,,0.00,WUHU216WMR100,2013-02-09 03:02:00,
2013-02-08 22:07:00,26.1,17.7,29.18,NNE,22,7.8,14.5,70,0.00,,,0.00,WUHU216WMR100,2013-02-09 03:07:00,
2013-02-08 22:12:00,26.1,17.4,29.18,WNW,292,10.1,13.9,69,0.00,,,0.00,WUHU216WMR100,2013-02-09 03:12:00,
2013-02-08 22:17:00,26.1,17.0,29.18,WNW,292,7.2,13.9,68,0.00,,,0.00,WUHU216WMR100,2013-02-09 03:17:00,
2013-02-08 22:23:00,26.2,16.8,29.21,NNW,337,8.9,13.2,67,0.00,,,0.00,WUHU216WMR100,2013-02-09 03:23:00,
2013-02-08 22:28:00,26.2,16.8,29.21,NNE,22,6.3,13.2,67,0.00,,,0.00,WUHU216WMR100,2013-02-09 03:28:00,
2013-02-08 22:33:00,26.2,16.1,29.21,North,0,6.3,14.1,65,0.00,,,0.00,WUHU216WMR100,2013-02-09 03:33:00,
2013-02-08 22:38:00,26.1,16.3,29.21,NNE,22,6.7,14.1,66,0.00,,,0.00,WUHU216WMR100,2013-02-09 03:38:00,
2013-02-08 22:43:00,26.1,15.3,29.21,NW,315,10.7,22.8,63,0.00,,,0.00,WUHU216WMR100,2013-02-09 03:43:00,
2013-02-08 22:48:00,26.1,15.6,29.21,NW,315,5.4,22.8,64,0.00,,,0.00,WUHU216WMR100,2013-02-09 03:48:00,
2013-02-08 22:53:00,26.2,15.4,29.21,WNW,292,8.7,13.6,63,0.00,,,0.00,WUHU216WMR100,2013-02-09 03:53:00,
2013-02-08 22:58:00,26.2,15.7,29.21,North,0,6.5,12.8,64,0.00,,,0.00,WUHU216WMR100,2013-02-09 03:58:00,
2013-02-08 23:03:00,26.1,16.0,29.21,NW,315,7.8,11.4,65,0.00,,,0.00,WUHU216WMR100,2013-02-09 04:03:00,
2013-02-08 23:08:00,26.1,16.0,29.21,NNW,337,5.8,17.0,65,0.00,,,0.00,WUHU216WMR100,2013-02-09 04:08:00,
2013-02-08 23:13:00,26.1,16.0,29.21,NW,315,6.7,17.0,65,0.00,,,0.00,WUHU216WMR100,2013-02-09 04:13:00,
2013-02-08 23:18:00,26.1,16.7,29.21,North,0,5.6,12.8,67,0.00,,,0.00,WUHU216WMR100,2013-02-09 04:18:00,
2013-02-08 23:22:00,26.1,17.0,29.21,NNW,337,4.0,11.0,68,0.00,,,0.00,WUHU216WMR100,2013-02-09 04:22:00,
2013-02-08 23:28:00,26.1,17.0,29.21,NW,315,3.1,15.2,68,0.00,,,0.00,WUHU216WMR100,2013-02-09 04:28:00,
2013-02-08 23:33:00,25.9,16.8,29.21,NNW,337,7.8,15.2,68,0.00,,,0.00,WUHU216WMR100,2013-02-09 04:33:00,
2013-02-08 23:38:00,25.9,17.2,29.21,WNW,292,7.4,12.8,69,0.00,,,0.00,WUHU216WMR100,2013-02-09 04:38:00,
2013-02-08 23:43:00,25.9,17.2,29.21,NNW,337,5.4,12.1,69,0.00,,,0.00,WUHU216WMR100,2013-02-09 04:43:00,
2013-02-08 23:48:00,25.9,17.5,29.21,NNE,22,4.0,12.1,70,0.00,,,0.00,WUHU216WMR100,2013-02-09 04:48:00,
2013-02-08 23:53:00,25.7,17.0,29.21,SSW,202,4.3,13.2,69,0.00,,,0.00,WUHU216WMR100,2013-02-09 04:53:00,
2013-02-08 23:58:00,25.7,17.3,29.21,NNW,337,3.6,13.2,70,0.00,,,0.00,WUHU216WMR100,2013-02-09 04:58:00,